Time;durP1;ratioP1;P1;durP2;ratioP2;P2;SDS_P1;SDS_P2;PMS_P1;PMS_P2;Temp;Humidity;BMP_temperature;BMP_pressure;BME280_temperature;BME280_humidity;BME280_pressure;Samples;Min_cycle;Max_cycle;Signal;HPM_P1;HPM_P2
2021/09/05 00:00:32;;;;;;;13.40;5.95;;;12.90;65.80;;;;;;5136375;28;20045;-34
2021/09/05 00:02:58;;;;;;;9.90;6.18;;;12.90;65.90;;;;;;5136994;28;20410;-33
2021/09/05 00:05:24;;;;;;;11.30;6.15;;;12.90;66.10;;;;;;5136641;28;20410;-34
2021/09/05 00:07:49;;;;;;;9.32;6.53;;;12.90;66.00;;;;;;5136885;28;20031;-33
2021/09/05 00:10:15;;;;;;;13.43;7.50;;;12.90;66.10;;;;;;5136719;28;20031;-33
2021/09/05 00:12:42;;;;;;;10.48;6.55;;;12.90;66.10;;;;;;5136428;28;20106;-33
2021/09/05 00:15:10;;;;;;;12.80;6.10;;;12.90;66.20;;;;;;5136880;28;20047;-33
2021/09/05 00:17:37;;;;;;;12.32;7.60;;;12.90;66.50;;;;;;5136588;28;20463;-33
2021/09/05 00:20:04;;;;;;;11.32;7.07;;;12.90;66.40;;;;;;5136487;28;20114;-33
2021/09/05 00:22:30;;;;;;;11.48;7.07;;;12.90;66.30;;;;;;5136255;28;20043;-33
2021/09/05 00:24:55;;;;;;;12.55;6.35;;;12.80;66.30;;;;;;5136835;28;20077;-34
2021/09/05 00:27:21;;;;;;;11.32;6.53;;;12.90;66.40;;;;;;5136403;28;20050;-33
2021/09/05 00:29:47;;;;;;;11.93;6.75;;;12.90;66.50;;;;;;5136487;28;20028;-34
2021/09/05 00:32:12;;;;;;;11.80;7.32;;;12.80;66.50;;;;;;5136625;28;20023;-34
2021/09/05 00:34:38;;;;;;;10.63;6.63;;;12.90;66.60;;;;;;5136219;28;20032;-34
2021/09/05 00:37:04;;;;;;;11.02;6.82;;;12.90;66.60;;;;;;5136565;28;20314;-34
2021/09/05 00:39:29;;;;;;;16.70;8.57;;;12.90;66.50;;;;;;5136261;28;20038;-33
2021/09/05 00:41:55;;;;;;;12.27;7.05;;;12.90;66.30;;;;;;5136431;28;20045;-34
2021/09/05 00:44:21;;;;;;;12.15;6.97;;;12.90;66.10;;;;;;5136444;28;20080;-34
2021/09/05 00:46:46;;;;;;;11.55;7.22;;;12.90;66.00;;;;;;5136340;28;20376;-33
2021/09/05 00:49:12;;;;;;;17.85;8.45;;;12.90;65.80;;;;;;5136207;28;20039;-33
2021/09/05 00:51:43;;;;;;;10.32;6.47;;;12.90;65.70;;;;;;5136038;28;20024;-33
2021/09/05 00:54:12;;;;;;;11.02;7.03;;;13.00;65.70;;;;;;5137347;27;20142;-36
2021/09/05 00:56:41;;;;;;;20.27;7.38;;;13.00;65.70;;;;;;5121488;27;20305;-34
2021/09/05 00:59:16;;;;;;;10.77;6.60;;;13.00;65.60;;;;;;5139944;27;20031;-34
2021/09/05 01:01:41;;;;;;;11.88;7.07;;;13.00;66.20;;;;;;5140012;27;20082;-33
2021/09/05 01:04:07;;;;;;;12.07;7.35;;;13.00;65.60;;;;;;5139709;27;20059;-34
2021/09/05 01:06:34;;;;;;;11.65;6.88;;;13.00;65.50;;;;;;5139551;27;20072;-34
2021/09/05 01:09:01;;;;;;;11.60;7.15;;;12.90;65.50;;;;;;5139511;27;20073;-33
2021/09/05 01:11:27;;;;;;;12.35;7.55;;;13.00;65.60;;;;;;5139353;27;20035;-34
2021/09/05 01:13:52;;;;;;;11.23;6.78;;;12.90;65.60;;;;;;5139575;27;20083;-33
2021/09/05 01:16:27;;;;;;;14.15;7.47;;;12.90;65.60;;;;;;5139798;27;20127;-34
2021/09/05 01:18:53;;;;;;;13.80;7.90;;;12.90;65.50;;;;;;5139808;27;20039;-33
2021/09/05 01:21:19;;;;;;;15.02;7.35;;;12.90;65.30;;;;;;5139358;27;20027;-34
2021/09/05 01:23:45;;;;;;;12.82;7.10;;;12.90;65.80;;;;;;5139842;27;20035;-34
2021/09/05 01:26:12;;;;;;;17.92;7.60;;;12.90;65.30;;;;;;5121159;27;20031;-34
2021/09/05 01:28:39;;;;;;;16.02;7.35;;;12.80;65.10;;;;;;5139558;27;20107;-34
2021/09/05 01:31:04;;;;;;;12.38;6.90;;;12.70;65.10;;;;;;5139696;27;20035;-34
2021/09/05 01:33:30;;;;;;;19.50;7.93;;;12.70;65.20;;;;;;5139689;27;20414;-34
2021/09/05 01:35:56;;;;;;;11.73;6.97;;;12.70;65.00;;;;;;5139106;27;20035;-34
2021/09/05 01:38:21;;;;;;;13.07;7.32;;;12.60;65.10;;;;;;5139245;27;20108;-33
2021/09/05 01:40:47;;;;;;;13.90;7.43;;;12.60;65.20;;;;;;5138993;27;20059;-33
2021/09/05 01:43:12;;;;;;;13.98;7.10;;;12.60;65.40;;;;;;5139601;27;20059;-33
2021/09/05 01:45:38;;;;;;;12.85;7.20;;;12.50;65.40;;;;;;5138821;27;20062;-34
2021/09/05 01:48:04;;;;;;;15.65;8.25;;;12.50;65.50;;;;;;5139475;27;20028;-33
2021/09/05 01:50:30;;;;;;;12.10;6.90;;;12.50;65.60;;;;;;5138895;27;20322;-33
2021/09/05 01:52:55;;;;;;;14.85;7.43;;;12.40;65.60;;;;;;5138975;27;20055;-33
2021/09/05 01:55:21;;;;;;;16.50;7.50;;;12.40;65.70;;;;;;5139065;27;20423;-33
2021/09/05 01:57:47;;;;;;;11.60;6.95;;;12.40;65.80;;;;;;5139027;27;20031;-34
2021/09/05 02:00:12;;;;;;;11.75;6.95;;;12.40;65.80;;;;;;5139064;27;20040;-33
2021/09/05 02:02:38;;;;;;;12.55;6.57;;;12.40;65.90;;;;;;5138399;27;20035;-33
2021/09/05 02:05:04;;;;;;;13.18;7.70;;;12.40;65.90;;;;;;5138302;27;20038;-33
2021/09/05 02:07:30;;;;;;;14.13;7.18;;;12.40;65.90;;;;;;5138435;27;20035;-33
2021/09/05 02:09:55;;;;;;;11.38;6.85;;;12.40;66.00;;;;;;5138394;27;20023;-33
2021/09/05 02:12:21;;;;;;;14.85;7.85;;;12.30;66.00;;;;;;5138570;27;20031;-33
2021/09/05 02:14:47;;;;;;;14.13;8.07;;;12.30;66.10;;;;;;5138611;27;20150;-34
2021/09/05 02:17:13;;;;;;;13.15;7.30;;;12.30;66.00;;;;;;5138232;27;20029;-33
2021/09/05 02:19:39;;;;;;;12.57;6.82;;;12.30;65.90;;;;;;5138358;27;20039;-33
2021/09/05 02:22:04;;;;;;;11.38;7.40;;;12.30;65.90;;;;;;5138415;27;20084;-33
2021/09/05 02:24:30;;;;;;;13.07;7.90;;;12.30;65.80;;;;;;5138300;27;20376;-33
2021/09/05 02:26:55;;;;;;;16.20;8.35;;;12.30;66.60;;;;;;5138191;27;20292;-33
2021/09/05 02:29:21;;;;;;;13.68;7.88;;;12.30;66.20;;;;;;5137933;27;20176;-33
2021/09/05 02:31:47;;;;;;;15.60;8.48;;;12.20;66.30;;;;;;5138201;27;20177;-34
2021/09/05 02:34:12;;;;;;;15.45;7.97;;;12.20;66.30;;;;;;5138054;27;20035;-33
2021/09/05 02:36:38;;;;;;;17.42;8.32;;;12.20;66.50;;;;;;5119496;27;20054;-33
2021/09/05 02:39:04;;;;;;;16.08;8.35;;;12.20;66.50;;;;;;5138279;27;20056;-33
2021/09/05 02:41:29;;;;;;;13.65;7.57;;;12.20;66.60;;;;;;5138048;27;20042;-33
2021/09/05 02:43:55;;;;;;;13.70;7.65;;;12.20;66.60;;;;;;5138221;27;20031;-33
2021/09/05 02:46:21;;;;;;;14.90;8.30;;;12.20;66.70;;;;;;5137855;27;20023;-33
2021/09/05 02:48:46;;;;;;;15.60;9.00;;;12.20;66.60;;;;;;5137993;27;20395;-33
2021/09/05 02:51:12;;;;;;;15.85;8.00;;;12.10;66.60;;;;;;5137879;27;20034;-33
2021/09/05 02:53:38;;;;;;;14.30;8.25;;;12.10;66.70;;;;;;5137719;27;20312;-32
2021/09/05 02:56:03;;;;;;;12.90;7.72;;;12.10;66.70;;;;;;5137681;27;20326;-33
2021/09/05 02:58:29;;;;;;;14.52;8.05;;;12.10;66.70;;;;;;5137943;27;20031;-33
2021/09/05 03:00:55;;;;;;;12.77;7.25;;;12.10;66.70;;;;;;5137779;27;20042;-33
2021/09/05 03:03:20;;;;;;;13.93;7.20;;;12.10;66.70;;;;;;5137751;27;20031;-33
2021/09/05 03:05:46;;;;;;;10.32;6.68;;;12.10;66.70;;;;;;5137408;27;20031;-33
2021/09/05 03:08:12;;;;;;;12.73;7.45;;;12.00;66.70;;;;;;5137765;27;20027;-33
2021/09/05 03:10:38;;;;;;;12.65;7.68;;;12.00;66.80;;;;;;5136838;27;20046;-33
2021/09/05 03:13:03;;;;;;;12.57;7.30;;;12.00;66.80;;;;;;5138101;27;20031;-32
2021/09/05 03:15:29;;;;;;;17.80;8.52;;;12.00;66.80;;;;;;5137271;27;20463;-33
2021/09/05 03:17:54;;;;;;;12.30;8.00;;;12.00;66.80;;;;;;5136432;27;20607;-33
2021/09/05 03:20:20;;;;;;;16.08;8.02;;;12.00;66.80;;;;;;5137038;27;20035;-33
2021/09/05 03:22:46;;;;;;;16.15;8.75;;;12.00;66.90;;;;;;5137366;27;20307;-33
2021/09/05 03:25:12;;;;;;;13.82;8.10;;;11.90;66.90;;;;;;5137431;27;20367;-33
2021/09/05 03:27:37;;;;;;;15.25;8.15;;;11.90;67.00;;;;;;5137108;27;20039;-34
2021/09/05 03:30:04;;;;;;;13.18;7.68;;;11.90;67.60;;;;;;5137121;27;20291;-32
2021/09/05 03:32:30;;;;;;;13.93;7.97;;;11.90;67.20;;;;;;5136788;27;20034;-33
2021/09/05 03:34:56;;;;;;;14.40;7.95;;;11.80;67.30;;;;;;5137286;27;20350;-33
2021/09/05 03:37:21;;;;;;;19.75;8.35;;;11.80;67.40;;;;;;5137011;27;20033;-33
2021/09/05 03:39:47;;;;;;;13.27;7.78;;;11.90;67.40;;;;;;5136956;27;20035;-33
2021/09/05 03:42:13;;;;;;;11.15;6.72;;;11.90;67.50;;;;;;5137090;27;20027;-33
2021/09/05 03:44:38;;;;;;;11.98;6.72;;;11.90;67.50;;;;;;5136680;27;20055;-33
2021/09/05 03:47:04;;;;;;;10.70;6.25;;;12.00;67.60;;;;;;5137048;27;20098;-33
2021/09/05 03:49:31;;;;;;;14.80;6.82;;;12.00;67.40;;;;;;5136361;27;20035;-33
2021/09/05 03:51:57;;;;;;;13.10;6.82;;;12.00;67.30;;;;;;5136817;27;20027;-33
2021/09/05 03:54:23;;;;;;;14.05;6.60;;;12.10;67.10;;;;;;5136485;27;20051;-33
2021/09/05 03:56:49;;;;;;;12.27;6.60;;;12.10;67.10;;;;;;5136507;28;20378;-33
2021/09/05 03:59:14;;;;;;;12.95;6.43;;;12.20;67.00;;;;;;5136811;28;20047;-33
2021/09/05 04:01:41;;;;;;;8.25;5.70;;;12.20;67.00;;;;;;5136455;28;20422;-33
2021/09/05 04:04:07;;;;;;;10.27;6.18;;;12.30;67.00;;;;;;5136831;28;20054;-33
2021/09/05 04:06:33;;;;;;;16.42;6.53;;;12.30;66.80;;;;;;5136294;28;20023;-33
2021/09/05 04:09:08;;;;;;;10.73;6.22;;;12.40;66.70;;;;;;5118084;28;20047;-33
2021/09/05 04:11:34;;;;;;;13.65;6.15;;;12.40;66.60;;;;;;5136403;28;20036;-33
2021/09/05 04:14:00;;;;;;;9.73;5.53;;;12.50;66.70;;;;;;5136572;28;20085;-33
2021/09/05 04:16:25;;;;;;;9.70;5.28;;;12.50;66.70;;;;;;5135953;28;20027;-33
2021/09/05 04:18:51;;;;;;;8.93;5.57;;;12.60;66.60;;;;;;5136328;28;20031;-33
2021/09/05 04:21:17;;;;;;;10.25;5.75;;;12.60;66.50;;;;;;5136120;28;20024;-33
2021/09/05 04:23:42;;;;;;;12.43;6.43;;;12.70;66.60;;;;;;5136794;28;20365;-33
2021/09/05 04:26:08;;;;;;;9.52;6.13;;;12.80;66.80;;;;;;5136272;28;20357;-33
2021/09/05 04:28:34;;;;;;;11.10;5.90;;;12.80;66.50;;;;;;5138513;27;20329;-33
2021/09/05 04:31:00;;;;;;;10.25;6.80;;;12.90;66.10;;;;;;5140246;27;20027;-34
2021/09/05 04:33:25;;;;;;;12.73;8.07;;;12.90;66.30;;;;;;5140501;27;20111;-33
2021/09/05 04:35:51;;;;;;;9.95;6.18;;;13.00;66.60;;;;;;5140115;27;20361;-33
2021/09/05 04:38:17;;;;;;;11.73;6.07;;;13.00;66.20;;;;;;5122322;27;20027;-33
2021/09/05 04:40:42;;;;;;;12.77;6.57;;;13.10;65.90;;;;;;5139965;27;20059;-34
2021/09/05 04:43:08;;;;;;;11.43;6.72;;;13.20;65.60;;;;;;5140696;27;20027;-34
2021/09/05 04:45:34;;;;;;;12.63;5.65;;;13.20;65.50;;;;;;5140023;27;20038;-34
2021/09/05 04:47:59;;;;;;;12.10;6.57;;;13.20;65.50;;;;;;5140249;27;20340;-33
2021/09/05 04:50:26;;;;;;;9.35;5.75;;;13.30;65.30;;;;;;5139723;27;20099;-33
2021/09/05 04:52:51;;;;;;;10.15;5.72;;;13.40;65.40;;;;;;5139766;27;20030;-33
2021/09/05 04:55:17;;;;;;;11.38;5.22;;;13.40;65.40;;;;;;5139743;27;20229;-33
2021/09/05 04:57:43;;;;;;;10.63;5.57;;;13.50;65.50;;;;;;5139856;27;20076;-32
2021/09/05 05:00:09;;;;;;;9.65;5.28;;;13.50;65.40;;;;;;5139913;27;20361;-32
2021/09/05 05:02:35;;;;;;;8.05;5.28;;;13.60;65.40;;;;;;5139547;27;20459;-33
2021/09/05 05:05:01;;;;;;;8.98;5.45;;;13.70;65.30;;;;;;5139694;27;20028;-33
2021/09/05 05:07:27;;;;;;;9.40;5.53;;;13.70;65.30;;;;;;5139869;27;20035;-33
2021/09/05 05:09:54;;;;;;;9.93;5.18;;;13.80;65.00;;;;;;5139901;27;20456;-33
2021/09/05 05:12:20;;;;;;;10.13;5.53;;;13.80;65.00;;;;;;5139559;27;20054;-33
2021/09/05 05:14:46;;;;;;;8.60;5.22;;;13.90;64.60;;;;;;5139579;27;20357;-33
2021/09/05 05:17:12;;;;;;;8.88;4.97;;;13.90;64.60;;;;;;5139632;27;20019;-33
2021/09/05 05:19:37;;;;;;;8.90;5.28;;;14.00;64.40;;;;;;5139342;27;20331;-33
2021/09/05 05:22:04;;;;;;;8.55;5.00;;;14.00;63.80;;;;;;5139669;27;20031;-33
2021/09/05 05:24:30;;;;;;;9.38;5.45;;;14.00;63.50;;;;;;5139055;27;20043;-33
2021/09/05 05:26:56;;;;;;;11.35;5.63;;;14.10;63.60;;;;;;5139301;27;20122;-33
2021/09/05 05:29:22;;;;;;;8.43;5.18;;;14.10;63.40;;;;;;5139236;27;20094;-33
2021/09/05 05:31:47;;;;;;;9.07;5.22;;;14.20;63.20;;;;;;5138918;27;20069;-32
2021/09/05 05:34:13;;;;;;;11.40;5.20;;;14.20;62.80;;;;;;5139062;27;20114;-32
2021/09/05 05:36:38;;;;;;;8.10;4.93;;;14.20;62.70;;;;;;5139081;27;20034;-33
2021/09/05 05:39:04;;;;;;;9.60;5.32;;;14.30;62.40;;;;;;5138682;27;20037;-33
2021/09/05 05:41:30;;;;;;;11.50;4.85;;;14.30;62.50;;;;;;5138559;27;20030;-33
2021/09/05 05:43:55;;;;;;;6.95;4.47;;;14.40;62.00;;;;;;5138946;27;20032;-33
2021/09/05 05:46:21;;;;;;;8.27;4.85;;;14.40;61.80;;;;;;5138824;27;20084;-33
2021/09/05 05:48:47;;;;;;;7.43;4.32;;;14.40;61.50;;;;;;5138938;27;20027;-33
2021/09/05 05:51:12;;;;;;;9.27;5.03;;;14.50;61.20;;;;;;5138529;27;20023;-34
2021/09/05 05:53:38;;;;;;;7.07;4.88;;;14.50;61.60;;;;;;5138321;27;20039;-33
2021/09/05 05:56:04;;;;;;;7.18;4.57;;;14.50;61.30;;;;;;5138870;27;20106;-34
2021/09/05 05:58:30;;;;;;;8.15;4.32;;;14.60;61.60;;;;;;5138863;27;20027;-34
2021/09/05 06:00:56;;;;;;;5.90;3.70;;;14.60;61.40;;;;;;5138761;27;20031;-33
2021/09/05 06:03:21;;;;;;;6.43;3.83;;;14.60;61.50;;;;;;5138107;27;20050;-33
2021/09/05 06:05:48;;;;;;;5.70;3.20;;;14.70;61.30;;;;;;5138493;27;20118;-34
2021/09/05 06:08:14;;;;;;;5.90;3.58;;;14.80;60.70;;;;;;5138937;27;20038;-34
2021/09/05 06:10:40;;;;;;;5.30;3.47;;;14.80;60.50;;;;;;5137650;27;20063;-34
2021/09/05 06:13:05;;;;;;;5.40;3.35;;;14.90;60.60;;;;;;5138278;27;20066;-34
2021/09/05 06:15:31;;;;;;;8.75;4.35;;;14.90;60.50;;;;;;5138316;27;20019;-33
2021/09/05 06:17:57;;;;;;;7.05;3.75;;;15.00;60.60;;;;;;5138720;27;20034;-34
2021/09/05 06:20:22;;;;;;;5.93;3.78;;;15.00;59.70;;;;;;5138148;27;20035;-34
2021/09/05 06:22:48;;;;;;;5.03;3.47;;;15.10;59.80;;;;;;5138450;27;20064;-33
2021/09/05 06:25:14;;;;;;;6.10;3.53;;;15.10;59.80;;;;;;5137813;27;20028;-34
2021/09/05 06:27:39;;;;;;;6.25;3.63;;;15.20;59.40;;;;;;5137889;27;20066;-33
2021/09/05 06:30:06;;;;;;;6.80;4.03;;;15.20;59.50;;;;;;5137833;27;20076;-33
2021/09/05 06:32:31;;;;;;;6.63;3.45;;;15.30;59.10;;;;;;5137558;27;20030;-33
2021/09/05 06:34:57;;;;;;;7.43;3.63;;;15.30;59.10;;;;;;5138083;27;20024;-34
2021/09/05 06:37:23;;;;;;;6.20;3.55;;;15.30;58.60;;;;;;5137837;27;20019;-33
2021/09/05 06:39:50;;;;;;;6.40;3.58;;;15.40;58.50;;;;;;5137915;27;20468;-34
2021/09/05 06:42:15;;;;;;;6.53;3.38;;;15.40;58.40;;;;;;5137804;27;20084;-34
2021/09/05 06:44:41;;;;;;;5.93;3.20;;;15.40;58.00;;;;;;5137479;27;20023;-33
2021/09/05 06:47:07;;;;;;;5.38;3.30;;;15.50;57.90;;;;;;5137658;27;20075;-33
2021/09/05 06:49:33;;;;;;;4.97;3.00;;;15.50;57.70;;;;;;5137316;27;20416;-33
2021/09/05 06:51:59;;;;;;;5.32;3.20;;;15.60;57.60;;;;;;5137673;27;20023;-33
2021/09/05 06:54:24;;;;;;;5.05;2.95;;;15.60;57.40;;;;;;5137211;27;20043;-33
2021/09/05 06:56:50;;;;;;;6.50;2.95;;;15.70;57.70;;;;;;5137355;27;20295;-34
2021/09/05 06:59:16;;;;;;;5.32;2.95;;;15.70;57.30;;;;;;5137181;27;20047;-33
2021/09/05 07:01:41;;;;;;;7.20;3.67;;;15.80;57.50;;;;;;5137191;27;20430;-34
2021/09/05 07:04:07;;;;;;;6.78;3.33;;;15.90;57.50;;;;;;5137246;27;20031;-34
2021/09/05 07:06:33;;;;;;;5.28;3.50;;;15.90;57.20;;;;;;5137149;27;20061;-32
2021/09/05 07:08:59;;;;;;;6.15;3.45;;;16.00;57.20;;;;;;5136927;27;20055;-33
2021/09/05 07:11:25;;;;;;;4.88;3.42;;;16.00;57.00;;;;;;5136743;27;20102;-34
2021/09/05 07:13:50;;;;;;;4.28;3.30;;;16.00;56.80;;;;;;5136684;27;20059;-34
2021/09/05 07:16:16;;;;;;;4.60;3.47;;;16.10;56.50;;;;;;5136963;27;20023;-34
2021/09/05 07:18:42;;;;;;;5.10;3.30;;;16.10;56.20;;;;;;5137179;27;20362;-34
2021/09/05 07:21:07;;;;;;;5.43;3.40;;;16.20;55.90;;;;;;5136633;27;20110;-35
2021/09/05 07:23:33;;;;;;;6.38;3.95;;;16.20;56.10;;;;;;5137145;27;20110;-34
2021/09/05 07:26:02;;;;;;;4.47;2.80;;;16.30;56.40;;;;;;5136677;27;20369;-33
2021/09/05 07:28:29;;;;;;;3.28;2.47;;;16.30;55.20;;;;;;5137014;27;20027;-34
2021/09/05 07:30:54;;;;;;;4.43;2.75;;;16.40;55.20;;;;;;5136518;27;20027;-34
2021/09/05 07:33:20;;;;;;;4.40;2.95;;;16.40;54.70;;;;;;5137331;27;20102;-34
2021/09/05 07:35:46;;;;;;;4.38;2.67;;;16.40;54.00;;;;;;5118648;27;20038;-34
2021/09/05 07:38:11;;;;;;;6.28;3.00;;;16.50;53.90;;;;;;5136953;27;20037;-34
2021/09/05 07:40:37;;;;;;;5.43;3.25;;;16.50;53.90;;;;;;5136811;27;20027;-34
2021/09/05 07:43:03;;;;;;;6.20;2.70;;;16.50;54.00;;;;;;5137136;27;20299;-34
2021/09/05 07:45:28;;;;;;;2.72;2.28;;;16.50;53.90;;;;;;5136660;27;20033;-34
2021/09/05 07:47:54;;;;;;;3.25;2.58;;;16.60;53.80;;;;;;5137220;27;20110;-34
2021/09/05 07:50:19;;;;;;;4.45;2.50;;;16.60;53.30;;;;;;5136329;27;20031;-33
2021/09/05 07:52:45;;;;;;;7.40;2.58;;;16.60;52.50;;;;;;5136474;27;20080;-34
2021/09/05 07:55:11;;;;;;;4.95;2.72;;;16.60;52.60;;;;;;5136932;27;20031;-34
2021/09/05 07:57:36;;;;;;;3.65;2.40;;;16.70;52.20;;;;;;5136646;27;20041;-34
2021/09/05 08:00:03;;;;;;;4.40;3.00;;;16.70;52.20;;;;;;5136467;28;20039;-35
2021/09/05 08:02:29;;;;;;;3.95;2.47;;;16.80;52.60;;;;;;5135863;27;20027;-33
2021/09/05 08:04:55;;;;;;;13.57;8.45;;;16.80;51.90;;;;;;5136572;28;20038;-34
2021/09/05 08:07:20;;;;;;;4.25;2.95;;;16.90;51.60;;;;;;5136250;28;20050;-34
2021/09/05 08:09:46;;;;;;;5.18;2.50;;;16.90;51.60;;;;;;5136132;28;20096;-34
2021/09/05 08:12:12;;;;;;;2.65;1.90;;;16.90;51.50;;;;;;5136354;28;20079;-33
2021/09/05 08:14:38;;;;;;;4.20;1.65;;;17.00;50.50;;;;;;5136175;28;20031;-33
2021/09/05 08:17:04;;;;;;;4.93;2.10;;;17.00;50.30;;;;;;5136303;28;20106;-34
2021/09/05 08:19:29;;;;;;;3.70;2.22;;;17.10;50.80;;;;;;5136245;28;20068;-35
2021/09/05 08:21:55;;;;;;;3.58;2.38;;;17.10;50.20;;;;;;5136129;28;20055;-33
2021/09/05 08:24:21;;;;;;;5.00;1.98;;;17.20;50.20;;;;;;5136129;28;20042;-34
2021/09/05 08:26:46;;;;;;;4.00;2.42;;;17.20;50.00;;;;;;5136143;28;20103;-33
2021/09/05 08:29:12;;;;;;;4.10;2.15;;;17.20;49.60;;;;;;5136183;28;20035;-33
2021/09/05 08:31:38;;;;;;;2.90;2.00;;;17.30;49.50;;;;;;5135771;28;20023;-34
2021/09/05 08:34:05;;;;;;;3.90;1.55;;;17.40;49.00;;;;;;5136176;28;20035;-35
2021/09/05 08:36:31;;;;;;;3.08;1.80;;;17.50;48.50;;;;;;5135879;28;20023;-34
2021/09/05 08:38:58;;;;;;;1.98;1.60;;;17.50;48.70;;;;;;5136169;28;20042;-34
2021/09/05 08:41:24;;;;;;;2.72;1.50;;;17.60;47.50;;;;;;5135973;28;20080;-33
2021/09/05 08:43:50;;;;;;;4.22;1.80;;;17.60;46.60;;;;;;5136070;28;20114;-33
2021/09/05 08:46:17;;;;;;;1.70;1.40;;;17.70;48.40;;;;;;5136255;28;20053;-35
2021/09/05 08:48:44;;;;;;;2.22;1.10;;;17.80;47.40;;;;;;5136105;28;20055;-34
2021/09/05 08:51:10;;;;;;;1.90;1.30;;;17.90;45.30;;;;;;5117561;28;20046;-33
2021/09/05 08:53:36;;;;;;;2.35;1.42;;;17.90;45.20;;;;;;5135869;28;20442;-34
2021/09/05 08:56:02;;;;;;;1.60;1.27;;;18.00;45.60;;;;;;5135636;28;20057;-34
2021/09/05 08:58:28;;;;;;;2.25;1.38;;;18.00;44.40;;;;;;5135708;28;20415;-36
2021/09/05 09:00:53;;;;;;;3.70;1.40;;;18.10;44.20;;;;;;5135797;28;20039;-33
2021/09/05 09:03:21;;;;;;;1.17;1.00;;;18.20;43.80;;;;;;5136014;28;20144;-34
2021/09/05 09:05:52;;;;;;;1.90;0.95;;;18.20;43.10;;;;;;5136350;28;20348;-33
2021/09/05 09:08:19;;;;;;;2.58;0.95;;;18.30;43.00;;;;;;5135981;28;20391;-33
2021/09/05 09:10:59;;;;;;;1.25;1.00;;;18.30;43.20;;;;;;5135649;28;20088;-34
2021/09/05 09:13:32;;;;;;;3.28;1.15;;;18.40;42.60;;;;;;5136163;28;20023;-33
2021/09/05 09:16:07;;;;;;;1.70;1.10;;;18.40;42.10;;;;;;5138012;27;20418;-33
2021/09/05 09:18:34;;;;;;;1.80;1.42;;;18.50;42.40;;;;;;5139646;27;20454;-34
2021/09/05 09:21:01;;;;;;;1.35;1.05;;;18.50;42.00;;;;;;5139460;27;20031;-34
2021/09/05 09:23:28;;;;;;;1.48;1.25;;;18.60;41.40;;;;;;5139595;27;20027;-34
2021/09/05 09:26:05;;;;;;;1.98;1.35;;;18.60;41.20;;;;;;5139092;27;20480;-33
2021/09/05 09:28:49;;;;;;;2.17;1.48;;;18.60;41.40;;;;;;5138923;27;20083;-33
2021/09/05 09:31:24;;;;;;;1.85;1.35;;;18.70;41.90;;;;;;5138563;27;20040;-34
2021/09/05 09:33:51;;;;;;;1.70;1.30;;;18.70;42.00;;;;;;5138515;27;20444;-34
2021/09/05 09:36:22;;;;;;;2.95;1.60;;;18.70;40.70;;;;;;5137218;27;20411;-34
2021/09/05 09:39:00;;;;;;;1.77;1.40;;;18.70;40.60;;;;;;5120324;27;20038;-33
2021/09/05 09:41:41;;;;;;;8.07;1.65;;;18.80;40.20;;;;;;5138206;27;20023;-35
2021/09/05 09:44:13;;;;;;;;;;;18.80;40.50;;;;;;5139175;27;20027;-33
2021/09/05 09:46:42;;;;;;;11.77;1.90;;;18.90;41.50;;;;;;5138573;27;19907;-34
2021/09/05 09:49:09;;;;;;;3.67;1.40;;;18.90;40.80;;;;;;5138571;27;20100;-34
2021/09/05 09:51:37;;;;;;;3.53;1.58;;;18.90;40.90;;;;;;5138860;27;20027;-35
2021/09/05 09:54:03;;;;;;;2.70;1.73;;;19.00;40.50;;;;;;5138413;27;20438;-34
2021/09/05 09:56:30;;;;;;;6.22;1.50;;;19.00;41.20;;;;;;5138503;27;20029;-33
2021/09/05 09:58:59;;;;;;;1.70;1.30;;;19.10;39.30;;;;;;5138439;27;20023;-34
2021/09/05 10:01:26;;;;;;;2.55;1.30;;;19.10;39.10;;;;;;5138585;27;20372;-34
2021/09/05 10:03:54;;;;;;;2.35;1.42;;;19.10;39.00;;;;;;5138778;27;20027;-35
2021/09/05 10:06:24;;;;;;;2.53;1.42;;;19.20;37.50;;;;;;5138328;27;20023;-33
2021/09/05 10:08:55;;;;;;;2.75;1.35;;;19.20;38.20;;;;;;5138275;27;20039;-34
2021/09/05 10:11:21;;;;;;;2.08;1.27;;;19.20;38.70;;;;;;5119978;27;20122;-34
2021/09/05 10:13:48;;;;;;;1.73;1.17;;;19.30;38.90;;;;;;5138676;27;20099;-34
2021/09/05 10:16:14;;;;;;;1.50;1.13;;;19.30;37.90;;;;;;5138341;27;20076;-34
2021/09/05 10:18:48;;;;;;;1.80;1.25;;;19.30;38.00;;;;;;5138671;27;20031;-33
2021/09/05 10:21:16;;;;;;;3.75;1.50;;;19.40;37.20;;;;;;5137787;27;20051;-34
2021/09/05 10:23:56;;;;;;;3.17;1.17;;;19.40;36.90;;;;;;5138512;27;20337;-34
2021/09/05 10:26:23;;;;;;;2.25;1.55;;;19.40;37.30;;;;;;5137388;27;20083;-34
2021/09/05 10:28:56;;;;;;;2.10;1.38;;;19.40;38.40;;;;;;5138136;27;20035;-34
2021/09/05 10:31:30;;;;;;;1.75;1.42;;;19.40;38.50;;;;;;5137974;27;20023;-33
2021/09/05 10:33:58;;;;;;;4.32;1.52;;;19.50;38.30;;;;;;5137837;27;20035;-33
2021/09/05 10:36:25;;;;;;;2.35;1.40;;;19.50;37.60;;;;;;5137921;27;20016;-34
2021/09/05 10:39:05;;;;;;;2.30;1.98;;;19.60;37.30;;;;;;5137851;27;20119;-35
2021/09/05 10:41:31;;;;;;;2.90;1.35;;;19.70;37.30;;;;;;5137896;27;20041;-34
2021/09/05 10:44:09;;;;;;;3.58;1.50;;;19.80;37.40;;;;;;5137692;27;20110;-34
2021/09/05 10:46:45;;;;;;;1.98;1.30;;;19.90;36.70;;;;;;5137285;27;20481;-36
2021/09/05 10:49:11;;;;;;;3.58;1.42;;;20.00;36.70;;;;;;5137525;27;20035;-34
2021/09/05 10:51:42;;;;;;;2.58;1.45;;;20.00;36.30;;;;;;5137350;27;20031;-38
2021/09/05 10:54:19;;;;;;;1.77;1.10;;;20.10;35.40;;;;;;5137360;27;20075;-35
2021/09/05 10:56:45;;;;;;;2.83;1.02;;;20.20;35.60;;;;;;5137339;27;20366;-35
2021/09/05 10:59:16;;;;;;;1.60;1.10;;;20.30;35.70;;;;;;5137728;27;20031;-34
2021/09/05 11:01:47;;;;;;;;;;;20.40;35.70;;;;;;5137995;27;20023;-34
2021/09/05 11:04:13;;;;;;;127.57;114.30;;;20.40;36.60;;;;;;5137398;27;19938;-33
2021/09/05 11:07:02;;;;;;;6.57;4.43;;;20.50;36.40;;;;;;5136958;27;20038;-33
2021/09/05 11:09:28;;;;;;;1.83;1.60;;;20.70;36.40;;;;;;5136906;27;20031;-34
2021/09/05 11:12:12;;;;;;;1.92;1.50;;;20.70;36.20;;;;;;5137229;27;20023;-34
2021/09/05 11:17:09;;;;;;;1.80;1.40;;;20.90;35.60;;;;;;5137360;27;20031;-35
2021/09/05 11:19:44;;;;;;;2.55;1.88;;;20.80;35.10;;;;;;5137315;27;20027;-34
2021/09/05 11:22:15;;;;;;;3.33;1.90;;;20.80;35.60;;;;;;5137036;27;20027;-34
2021/09/05 11:24:41;;;;;;;;;;;20.70;34.70;;;;;;5137450;27;20117;-34
2021/09/05 11:27:11;;;;;;;4.60;1.90;;;20.60;35.30;;;;;;5137168;27;20300;-35
2021/09/05 11:29:38;;;;;;;3.10;2.10;;;20.60;35.90;;;;;;5136743;27;20087;-34
2021/09/05 11:32:09;;;;;;;1.15;1.05;;;20.60;36.50;;;;;;5136727;27;20027;-34
2021/09/05 11:34:36;;;;;;;2.95;1.67;;;20.70;35.60;;;;;;5136804;27;20031;-34
2021/09/05 11:37:02;;;;;;;2.72;1.85;;;20.80;35.60;;;;;;5136350;27;20037;-33
2021/09/05 11:39:29;;;;;;;1.85;1.40;;;21.00;35.90;;;;;;5136368;27;20058;-33
2021/09/05 11:41:56;;;;;;;1.92;1.50;;;21.20;34.60;;;;;;5136548;27;20031;-33
2021/09/05 11:44:35;;;;;;;4.45;2.28;;;21.40;34.20;;;;;;5136810;27;20114;-34
2021/09/05 11:47:07;;;;;;;1.25;1.15;;;21.40;34.80;;;;;;5136821;27;20041;-33
2021/09/05 11:49:45;;;;;;;3.60;1.88;;;21.50;34.00;;;;;;5136301;27;20319;-33
2021/09/05 11:52:11;;;;;;;2.28;1.80;;;21.60;34.00;;;;;;5136561;27;20027;-34
2021/09/05 11:54:37;;;;;;;4.90;2.28;;;21.70;34.80;;;;;;5136056;27;20058;-34
2021/09/05 11:57:03;;;;;;;3.70;2.13;;;21.80;33.60;;;;;;5136518;27;20042;-34
2021/09/05 11:59:29;;;;;;;1.63;1.30;;;21.90;33.60;;;;;;5136433;28;20118;-33
2021/09/05 12:01:54;;;;;;;3.03;2.00;;;22.10;33.80;;;;;;5136325;28;20030;-34
2021/09/05 12:04:21;;;;;;;2.90;1.45;;;22.30;33.40;;;;;;5136520;28;20027;-34
2021/09/05 12:06:47;;;;;;;4.40;1.55;;;22.40;32.30;;;;;;5136205;28;20037;-34
2021/09/05 12:09:26;;;;;;;2.22;1.20;;;22.60;31.40;;;;;;5136407;28;20379;-34
2021/09/05 12:12:03;;;;;;;2.78;1.42;;;22.70;31.20;;;;;;5136380;28;20080;-33
2021/09/05 12:14:34;;;;;;;3.13;1.88;;;22.80;31.00;;;;;;5136292;28;20027;-34
2021/09/05 12:17:20;;;;;;;5.82;1.20;;;23.00;31.00;;;;;;5136717;28;20322;-34
2021/09/05 12:20:02;;;;;;;1.55;1.20;;;23.20;31.60;;;;;;5136486;28;20364;-33
2021/09/05 12:22:49;;;;;;;2.70;1.52;;;23.30;31.40;;;;;;5135913;28;20434;-34
2021/09/05 12:25:35;;;;;;;2.03;1.48;;;23.50;32.00;;;;;;5136186;28;20042;-34
2021/09/05 12:28:02;;;;;;;2.72;1.52;;;23.70;32.80;;;;;;5136624;28;20031;-34
2021/09/05 12:30:31;;;;;;;2.85;2.13;;;23.90;31.60;;;;;;5136033;28;20031;-34
2021/09/05 12:33:05;;;;;;;2.67;1.77;;;24.10;31.80;;;;;;5136709;28;20031;-34
2021/09/05 12:35:31;;;;;;;1.33;1.20;;;24.40;30.80;;;;;;5117887;28;20347;-35
2021/09/05 12:38:07;;;;;;;2.72;1.80;;;24.50;31.20;;;;;;5136257;28;20027;-35
2021/09/05 12:40:44;;;;;;;2.17;1.58;;;24.80;30.70;;;;;;5135923;28;20031;-34
2021/09/05 12:43:11;;;;;;;4.75;2.05;;;24.80;30.00;;;;;;5136453;28;20035;-33
2021/09/05 12:45:55;;;;;;;1.70;1.30;;;24.70;30.50;;;;;;5136140;28;20319;-34